createdAt,value
2017-05-03T00:00:02.907Z,10.31
2017-05-03T00:00:07.346Z,10.31
2017-05-03T00:00:11.774Z,10.28
2017-05-03T00:00:16.088Z,10.34
2017-05-03T00:00:20.520Z,10.29
2017-05-03T00:00:24.947Z,10.25
2017-05-03T00:00:29.373Z,10.26
2017-05-03T00:00:33.808Z,10.29
2017-05-03T00:00:38.158Z,10.26
2017-05-03T00:00:42.592Z,10.29
2017-05-03T00:00:47.026Z,10.32
2017-05-03T00:00:51.219Z,10.28
2017-05-03T00:00:55.680Z,10.29
2017-05-03T00:01:00.104Z,10.32
2017-05-03T00:01:04.532Z,10.31
2017-05-03T00:01:08.856Z,10.26
2017-05-03T00:01:13.049Z,10.31
2017-05-03T00:01:17.494Z,10.29
2017-05-03T00:01:21.929Z,10.32
2017-05-03T00:01:26.359Z,10.29
2017-05-03T00:01:30.789Z,10.26
2017-05-03T00:01:35.216Z,10.31
2017-05-03T00:01:39.413Z,10.29
2017-05-03T00:01:43.847Z,10.28
2017-05-03T00:01:48.278Z,10.31
2017-05-03T00:01:52.704Z,10.29
2017-05-03T00:01:57.135Z,10.26
2017-05-03T00:02:01.563Z,10.29
2017-05-03T00:02:05.757Z,10.32
2017-05-03T00:02:09.963Z,10.35
2017-05-03T00:02:14.273Z,10.26
2017-05-03T00:02:18.588Z,10.28
2017-05-03T00:02:23.043Z,10.35
2017-05-03T00:02:27.401Z,10.32
2017-05-03T00:02:31.838Z,10.28
2017-05-03T00:02:36.264Z,10.26
2017-05-03T00:02:40.700Z,10.26
2017-05-03T00:02:45.135Z,10.29
2017-05-03T00:02:49.575Z,10.29
2017-05-03T00:02:54.002Z,10.34
2017-05-03T00:02:58.313Z,10.34
2017-05-03T00:03:02.846Z,10.31
2017-05-03T00:03:07.291Z,10.29
2017-05-03T00:03:11.725Z,10.35
2017-05-03T00:03:15.919Z,10.31
2017-05-03T00:03:20.358Z,10.31
2017-05-03T00:03:24.560Z,10.26
2017-05-03T00:03:28.871Z,10.29
2017-05-03T00:03:33.306Z,10.34
2017-05-03T00:03:37.633Z,10.34
2017-05-03T00:03:42.118Z,10.32
2017-05-03T00:03:46.540Z,10.29
2017-05-03T00:03:50.852Z,10.26
2017-05-03T00:03:55.285Z,10.32
2017-05-03T00:03:59.720Z,10.32
2017-05-03T00:04:04.146Z,10.29
2017-05-03T00:04:08.341Z,10.31
2017-05-03T00:04:12.538Z,10.32
2017-05-03T00:04:16.736Z,10.36
2017-05-03T00:04:20.928Z,10.28
2017-05-03T00:04:25.357Z,10.32
2017-05-03T00:04:29.674Z,10.29
2017-05-03T00:04:34.116Z,10.32
2017-05-03T00:04:38.315Z,10.26
2017-05-03T00:04:42.748Z,10.29
2017-05-03T00:04:47.178Z,10.31
2017-05-03T00:04:51.605Z,10.34
2017-05-03T00:04:55.960Z,10.31
2017-05-03T00:05:00.273Z,10.26
2017-05-03T00:05:04.931Z,10.32
2017-05-03T00:05:09.362Z,10.29
2017-05-03T00:05:13.677Z,10.32
2017-05-03T00:05:17.988Z,10.29
2017-05-03T00:05:22.308Z,10.24
2017-05-03T00:05:26.532Z,10.29
2017-05-03T00:05:30.956Z,10.34
2017-05-03T00:05:35.383Z,10.31
2017-05-03T00:05:39.689Z,10.25
2017-05-03T00:05:44.123Z,10.29
2017-05-03T00:05:48.431Z,10.29
2017-05-03T00:05:52.740Z,10.31
2017-05-03T00:05:57.178Z,10.31
2017-05-03T00:06:01.409Z,10.29
2017-05-03T00:06:05.835Z,10.29
2017-05-03T00:06:10.292Z,10.24
2017-05-03T00:06:14.602Z,10.32
2017-05-03T00:06:19.028Z,10.29
2017-05-03T00:06:23.462Z,10.34
2017-05-03T00:06:27.920Z,10.29
2017-05-03T00:06:32.349Z,10.31
2017-05-03T00:06:36.669Z,10.29
2017-05-03T00:06:41.106Z,10.29
2017-05-03T00:06:45.544Z,10.31
2017-05-03T00:06:49.977Z,10.26
2017-05-03T00:06:54.404Z,10.26
2017-05-03T00:06:58.842Z,10.31
2017-05-03T00:07:02.796Z,10.29
2017-05-03T00:07:07.229Z,10.34
2017-05-03T00:07:11.658Z,10.32
2017-05-03T00:07:15.966Z,10.31
2017-05-03T00:07:20.401Z,10.29
2017-05-03T00:07:24.829Z,10.25
2017-05-03T00:07:29.138Z,10.35
2017-05-03T00:07:33.443Z,10.35
2017-05-03T00:07:37.767Z,10.29
2017-05-03T00:07:42.204Z,10.29
2017-05-03T00:07:46.625Z,10.32
2017-05-03T00:07:50.938Z,10.32
2017-05-03T00:07:55.382Z,10.35
2017-05-03T00:07:59.702Z,10.29
2017-05-03T00:08:04.010Z,10.28
2017-05-03T00:08:08.333Z,10.26
2017-05-03T00:08:12.659Z,10.31
2017-05-03T00:08:16.977Z,10.31
2017-05-03T00:08:21.450Z,10.32
2017-05-03T00:08:25.761Z,10.31
2017-05-03T00:08:30.189Z,10.29
2017-05-03T00:08:34.623Z,10.32
2017-05-03T00:08:38.991Z,10.31
2017-05-03T00:08:43.193Z,10.31
2017-05-03T00:08:47.639Z,10.29
2017-05-03T00:08:51.956Z,10.32
2017-05-03T00:08:56.271Z,10.25
2017-05-03T00:09:00.468Z,10.26
2017-05-03T00:09:04.898Z,10.31
2017-05-03T00:09:09.094Z,10.29
2017-05-03T00:09:13.297Z,10.35
2017-05-03T00:09:17.743Z,10.26
2017-05-03T00:09:22.177Z,10.32
2017-05-03T00:09:26.618Z,10.31
2017-05-03T00:09:30.928Z,10.29
2017-05-03T00:09:35.250Z,10.34
2017-05-03T00:09:39.676Z,10.29
2017-05-03T00:09:44.105Z,10.31
2017-05-03T00:09:48.534Z,10.29
2017-05-03T00:09:52.967Z,10.31
2017-05-03T00:09:57.402Z,10.29
2017-05-03T00:10:02.133Z,10.29
2017-05-03T00:10:06.448Z,10.29
2017-05-03T00:10:10.805Z,10.29
2017-05-03T00:10:14.990Z,10.36
2017-05-03T00:10:19.305Z,10.29
2017-05-03T00:10:23.742Z,10.29
2017-05-03T00:10:28.072Z,10.28
2017-05-03T00:10:32.265Z,10.31
2017-05-03T00:10:36.694Z,10.29
2017-05-03T00:10:41.132Z,10.24
2017-05-03T00:10:45.562Z,10.32
2017-05-03T00:10:50.001Z,10.29
2017-05-03T00:10:54.434Z,10.31
2017-05-03T00:10:58.866Z,10.28
2017-05-03T00:11:03.439Z,10.28
2017-05-03T00:11:07.870Z,10.32
2017-05-03T00:11:12.065Z,10.29
2017-05-03T00:11:16.381Z,10.29
2017-05-03T00:11:20.696Z,10.28
2017-05-03T00:11:25.118Z,10.29
2017-05-03T00:11:29.326Z,10.29
2017-05-03T00:11:33.764Z,10.29
2017-05-03T00:11:38.191Z,10.29
2017-05-03T00:11:42.632Z,10.28
2017-05-03T00:11:47.060Z,10.29
2017-05-03T00:11:51.257Z,10.26
2017-05-03T00:11:55.571Z,10.24
2017-05-03T00:12:00.002Z,10.31
2017-05-03T00:12:04.441Z,10.32
2017-05-03T00:12:08.869Z,10.26
2017-05-03T00:12:13.182Z,10.29
2017-05-03T00:12:17.612Z,10.29
2017-05-03T00:12:21.811Z,10.34
2017-05-03T00:12:26.241Z,10.31
2017-05-03T00:12:30.671Z,10.25
2017-05-03T00:12:35.027Z,10.26
2017-05-03T00:12:39.465Z,10.31
2017-05-03T00:12:43.899Z,10.31
2017-05-03T00:12:48.337Z,10.22
2017-05-03T00:12:52.786Z,10.26
2017-05-03T00:12:57.105Z,10.31
2017-05-03T00:13:01.420Z,10.26
2017-05-03T00:13:05.774Z,10.29
2017-05-03T00:13:10.201Z,10.26
2017-05-03T00:13:14.170Z,10.31
2017-05-03T00:13:18.607Z,10.28
2017-05-03T00:13:23.044Z,10.31
2017-05-03T00:13:27.481Z,10.28
2017-05-03T00:13:31.804Z,10.29
2017-05-03T00:13:36.251Z,10.28
2017-05-03T00:13:40.688Z,10.26
2017-05-03T00:13:45.126Z,10.29
2017-05-03T00:13:49.555Z,10.25
2017-05-03T00:13:53.989Z,10.31
2017-05-03T00:13:58.312Z,10.31
2017-05-03T00:14:02.539Z,10.28
2017-05-03T00:14:06.979Z,10.31
2017-05-03T00:14:11.464Z,10.25
2017-05-03T00:14:15.701Z,10.29
2017-05-03T00:14:20.132Z,10.24
2017-05-03T00:14:24.577Z,10.29
2017-05-03T00:14:28.902Z,10.28
2017-05-03T00:14:33.328Z,10.24
2017-05-03T00:14:37.760Z,10.29
2017-05-03T00:14:42.194Z,10.32
2017-05-03T00:14:46.627Z,10.24
2017-05-03T00:14:51.058Z,10.18
2017-05-03T00:14:55.498Z,10.2
2017-05-03T00:14:59.941Z,10.2
2017-05-03T00:15:04.554Z,10.24
2017-05-03T00:15:08.623Z,10.26
2017-05-03T00:15:12.931Z,10.22
2017-05-03T00:15:17.393Z,10.16
2017-05-03T00:15:21.827Z,10.32
2017-05-03T00:15:26.252Z,10.2
2017-05-03T00:15:30.565Z,10.29
2017-05-03T00:15:34.875Z,10.29
2017-05-03T00:15:39.308Z,10.24
2017-05-03T00:15:43.739Z,10.22
2017-05-03T00:15:48.169Z,10.22
2017-05-03T00:15:52.597Z,10.24
2017-05-03T00:15:57.026Z,10.2
2017-05-03T00:16:01.449Z,10.29
2017-05-03T00:16:05.759Z,10.24
2017-05-03T00:16:10.114Z,10.2
2017-05-03T00:16:14.550Z,10.29
2017-05-03T00:16:18.862Z,10.24
2017-05-03T00:16:23.292Z,10.26
2017-05-03T00:16:27.727Z,10.18
2017-05-03T00:16:32.043Z,10.26
2017-05-03T00:16:36.474Z,10.17
2017-05-03T00:16:40.909Z,10.14
2017-05-03T00:16:45.336Z,10.16
2017-05-03T00:16:49.652Z,10.17
2017-05-03T00:16:53.993Z,10.2
2017-05-03T00:16:58.424Z,10.18
2017-05-03T00:17:02.851Z,10.2
2017-05-03T00:17:07.282Z,10.18
2017-05-03T00:17:11.600Z,10.18
2017-05-03T00:17:16.029Z,10.17
2017-05-03T00:17:20.351Z,10.14
2017-05-03T00:17:24.775Z,10.17
2017-05-03T00:17:29.091Z,10.13
2017-05-03T00:17:33.523Z,10.24
2017-05-03T00:17:37.955Z,10.18
2017-05-03T00:17:42.326Z,10.14
2017-05-03T00:17:46.757Z,10.14
2017-05-03T00:17:51.073Z,10.17
2017-05-03T00:17:55.268Z,10.13
2017-05-03T00:17:59.585Z,10.13
2017-05-03T00:18:04.114Z,10.24
2017-05-03T00:18:08.422Z,10.16
2017-05-03T00:18:12.735Z,10.17
2017-05-03T00:18:16.931Z,10.16
2017-05-03T00:18:21.376Z,10.2
2017-05-03T00:18:25.816Z,10.11
2017-05-03T00:18:30.018Z,10.13
2017-05-03T00:18:34.337Z,10.13
2017-05-03T00:18:38.762Z,10.17
2017-05-03T00:18:43.205Z,10.13
2017-05-03T00:18:47.531Z,10.14
2017-05-03T00:18:52.266Z,10.16
2017-05-03T00:18:56.707Z,10.18
2017-05-03T00:19:01.187Z,10.17
2017-05-03T00:19:05.767Z,10.16
2017-05-03T00:19:10.198Z,10.16
2017-05-03T00:19:14.510Z,10.16
2017-05-03T00:19:18.828Z,10.16
2017-05-03T00:19:23.081Z,10.16
2017-05-03T00:19:27.401Z,10.18
2017-05-03T00:19:31.833Z,10.17
2017-05-03T00:19:36.265Z,10.16
2017-05-03T00:19:40.579Z,10.17
2017-05-03T00:19:45.006Z,10.16
2017-05-03T00:19:49.447Z,10.16
2017-05-03T00:19:53.874Z,10.18
2017-05-03T00:19:58.208Z,10.13
2017-05-03T00:20:02.625Z,10.17
2017-05-03T00:20:06.934Z,10.14
2017-05-03T00:20:11.136Z,10.13
2017-05-03T00:20:15.364Z,10.13
2017-05-03T00:20:19.554Z,10.11
2017-05-03T00:20:23.982Z,10.16
2017-05-03T00:20:28.326Z,10.14
2017-05-03T00:20:32.753Z,10.16
2017-05-03T00:20:37.182Z,10.11
2017-05-03T00:20:41.614Z,10.18
2017-05-03T00:20:45.950Z,10.17
2017-05-03T00:20:50.412Z,10.11
2017-05-03T00:20:54.846Z,10.14
2017-05-03T00:20:59.160Z,10.1
2017-05-03T00:21:03.470Z,10.14
2017-05-03T00:21:07.912Z,10.16
2017-05-03T00:21:12.342Z,10.13
2017-05-03T00:21:16.531Z,10.16
2017-05-03T00:21:20.969Z,10.11
2017-05-03T00:21:25.404Z,10.16
2017-05-03T00:21:29.828Z,10.11
2017-05-03T00:21:34.254Z,10.1
2017-05-03T00:21:38.683Z,10.13
2017-05-03T00:21:43.118Z,10.14
2017-05-03T00:21:47.558Z,10.17
2017-05-03T00:21:51.989Z,10.13
2017-05-03T00:21:56.450Z,10.16
2017-05-03T00:22:00.644Z,10.18
2017-05-03T00:22:04.839Z,10.11
2017-05-03T00:22:08.912Z,10.01
2017-05-03T00:22:13.105Z,10.1
2017-05-03T00:22:17.419Z,10.16
2017-05-03T00:22:21.844Z,10.14
2017-05-03T00:22:26.279Z,10.1
2017-05-03T00:22:30.709Z,10.22
2017-05-03T00:22:35.133Z,10.16
2017-05-03T00:22:39.326Z,10.14
2017-05-03T00:22:43.755Z,10.13
2017-05-03T00:22:48.195Z,10.18
2017-05-03T00:22:52.626Z,10.04
2017-05-03T00:22:57.057Z,10.16
2017-05-03T00:23:01.367Z,10.14
2017-05-03T00:23:05.807Z,10.13
2017-05-03T00:23:10.114Z,10.13
2017-05-03T00:23:14.317Z,10.24
2017-05-03T00:23:18.637Z,10.16
2017-05-03T00:23:23.075Z,10.14
2017-05-03T00:23:27.390Z,10.06
2017-05-03T00:23:31.829Z,10.13
2017-05-03T00:23:36.272Z,10.1
2017-05-03T00:23:40.704Z,10.14
2017-05-03T00:23:45.136Z,10.06
2017-05-03T00:23:49.570Z,10.16
2017-05-03T00:23:54.011Z,10.06
2017-05-03T00:23:58.443Z,10.16
2017-05-03T00:24:02.908Z,10.14
2017-05-03T00:24:07.348Z,10.14
2017-05-03T00:24:11.674Z,10.14
2017-05-03T00:24:15.639Z,10.11
2017-05-03T00:24:20.076Z,10.11
2017-05-03T00:24:24.504Z,10.13
2017-05-03T00:24:28.823Z,10.17
2017-05-03T00:24:33.305Z,10.17
2017-05-03T00:24:37.622Z,10.13
2017-05-03T00:24:42.049Z,10.1
2017-05-03T00:24:46.484Z,10.11
2017-05-03T00:24:50.912Z,10.16
2017-05-03T00:24:55.341Z,10.13
2017-05-03T00:24:59.422Z,10.1
2017-05-03T00:25:03.855Z,10.11
2017-05-03T00:25:08.212Z,10.16
2017-05-03T00:25:12.516Z,10.16
2017-05-03T00:25:16.823Z,10.11
2017-05-03T00:25:21.251Z,10.17
2017-05-03T00:25:25.725Z,10.17
2017-05-03T00:25:30.153Z,10.14
2017-05-03T00:25:34.579Z,10.13
2017-05-03T00:25:39.007Z,10.14
2017-05-03T00:25:43.439Z,10.13
2017-05-03T00:25:47.747Z,10.07
2017-05-03T00:25:52.170Z,10.16
2017-05-03T00:25:56.605Z,10.13
2017-05-03T00:26:00.796Z,10.07
2017-05-03T00:26:05.474Z,10.16
2017-05-03T00:26:09.674Z,10.16
2017-05-03T00:26:13.865Z,10.13
2017-05-03T00:26:18.296Z,10.14
2017-05-03T00:26:22.743Z,10.06
2017-05-03T00:26:27.051Z,10.17
2017-05-03T00:26:31.477Z,10.13
2017-05-03T00:26:35.902Z,10.1
2017-05-03T00:26:40.330Z,10.06
2017-05-03T00:26:44.769Z,10.18
2017-05-03T00:26:49.203Z,10.1
2017-05-03T00:26:53.511Z,10.16
2017-05-03T00:26:57.942Z,10.16
2017-05-03T00:27:02.244Z,10.1
2017-05-03T00:27:06.562Z,10.16
2017-05-03T00:27:11.015Z,10.13
2017-05-03T00:27:15.084Z,10.13
2017-05-03T00:27:19.505Z,9.99
2017-05-03T00:27:23.812Z,10.09
2017-05-03T00:27:28.239Z,10.11
2017-05-03T00:27:32.436Z,10.16
2017-05-03T00:27:36.869Z,10.13
2017-05-03T00:27:41.311Z,10.17
2017-05-03T00:27:45.741Z,10.11
2017-05-03T00:27:50.184Z,10.1
2017-05-03T00:27:54.497Z,10.13
2017-05-03T00:27:58.808Z,10.14
2017-05-03T00:28:03.301Z,10.16
2017-05-03T00:28:07.613Z,10.13
2017-05-03T00:28:12.046Z,10.13
2017-05-03T00:28:16.259Z,10.14
2017-05-03T00:28:20.702Z,10.14
2017-05-03T00:28:25.136Z,10.13
2017-05-03T00:28:29.574Z,10.1
2017-05-03T00:28:34.010Z,10.11
2017-05-03T00:28:38.442Z,10.18
2017-05-03T00:28:42.878Z,10.14
2017-05-03T00:28:47.300Z,10.14
2017-05-03T00:28:51.646Z,10.16
2017-05-03T00:28:55.961Z,10.14
2017-05-03T00:29:00.405Z,10.13
2017-05-03T00:29:05.081Z,10.13
2017-05-03T00:29:09.393Z,10.14
2017-05-03T00:29:13.827Z,10.14
2017-05-03T00:29:18.257Z,10.17
2017-05-03T00:29:22.689Z,10.16
2017-05-03T00:29:27.129Z,10.14
2017-05-03T00:29:31.441Z,10.14
2017-05-03T00:29:35.870Z,10.16
2017-05-03T00:29:40.061Z,10.16
2017-05-03T00:29:44.535Z,10.18
2017-05-03T00:29:48.968Z,10.14
2017-05-03T00:29:53.397Z,10.18
2017-05-03T00:29:57.844Z,10.17
2017-05-03T00:30:02.081Z,10.17
2017-05-03T00:30:06.399Z,10.14
2017-05-03T00:30:10.480Z,10.17
2017-05-03T00:30:14.801Z,10.18
2017-05-03T00:30:19.223Z,10.18
2017-05-03T00:30:23.657Z,10.16
2017-05-03T00:30:28.086Z,10.16
2017-05-03T00:30:32.511Z,10.17
2017-05-03T00:30:36.711Z,10.16
2017-05-03T00:30:41.034Z,10.16
2017-05-03T00:30:45.457Z,10.1
2017-05-03T00:30:49.879Z,10.22
2017-05-03T00:30:54.307Z,10.17
2017-05-03T00:30:58.731Z,10.13
2017-05-03T00:31:03.339Z,10.14
2017-05-03T00:31:07.767Z,10.17
2017-05-03T00:31:11.961Z,10.17
2017-05-03T00:31:16.385Z,10.16
2017-05-03T00:31:20.804Z,10.14
2017-05-03T00:31:25.110Z,10.18
2017-05-03T00:31:29.540Z,10.2
2017-05-03T00:31:33.740Z,10.16
2017-05-03T00:31:38.168Z,10.13
2017-05-03T00:31:42.593Z,10.25
2017-05-03T00:31:47.040Z,10.11
2017-05-03T00:31:51.470Z,10.14
2017-05-03T00:31:55.896Z,10.13
2017-05-03T00:32:00.336Z,10.2
2017-05-03T00:32:04.524Z,10.16
2017-05-03T00:32:08.834Z,10.13
2017-05-03T00:32:13.259Z,10.16
2017-05-03T00:32:17.579Z,10.16
2017-05-03T00:32:22.003Z,10.22
2017-05-03T00:32:26.314Z,10.18
2017-05-03T00:32:30.740Z,10.2
2017-05-03T00:32:34.825Z,10.24
2017-05-03T00:32:39.248Z,10.13
2017-05-03T00:32:43.674Z,10.16
2017-05-03T00:32:48.150Z,10.16
2017-05-03T00:32:52.576Z,10.2
2017-05-03T00:32:57.001Z,10.11
2017-05-03T00:33:01.199Z,10.16
2017-05-03T00:33:05.663Z,10.18
2017-05-03T00:33:10.091Z,10.2
2017-05-03T00:33:14.296Z,10.17
2017-05-03T00:33:18.728Z,10.17
2017-05-03T00:33:22.928Z,10.16
2017-05-03T00:33:27.357Z,10.13
2017-05-03T00:33:31.559Z,10.25
2017-05-03T00:33:35.898Z,10.16
2017-05-03T00:33:40.213Z,10.13
2017-05-03T00:33:44.646Z,10.22
2017-05-03T00:33:49.072Z,10.2
2017-05-03T00:33:53.507Z,10.22
2017-05-03T00:33:57.988Z,10.2
2017-05-03T00:34:02.305Z,10.16
2017-05-03T00:34:06.742Z,10.25
2017-05-03T00:34:11.051Z,10.11
2017-05-03T00:34:15.136Z,10.16
2017-05-03T00:34:19.443Z,10.17
2017-05-03T00:34:23.760Z,10.17
2017-05-03T00:34:28.076Z,10.2
2017-05-03T00:34:32.503Z,10.25
2017-05-03T00:34:36.930Z,10.2
2017-05-03T00:34:41.362Z,10.2
2017-05-03T00:34:45.790Z,10.17
2017-05-03T00:34:50.102Z,10.2
2017-05-03T00:34:54.534Z,10.18
2017-05-03T00:34:58.852Z,10.2
2017-05-03T00:35:03.175Z,10.24
2017-05-03T00:35:07.525Z,10.24
2017-05-03T00:35:11.842Z,10.18
2017-05-03T00:35:16.039Z,10.24
2017-05-03T00:35:20.367Z,10.2
2017-05-03T00:35:24.793Z,10.16
2017-05-03T00:35:29.104Z,10.16
2017-05-03T00:35:33.534Z,10.18
2017-05-03T00:35:37.967Z,10.18
2017-05-03T00:35:42.397Z,10.2
2017-05-03T00:35:46.826Z,10.18
2017-05-03T00:35:51.033Z,10.29
2017-05-03T00:35:55.465Z,10.26
2017-05-03T00:35:59.665Z,10.13
2017-05-03T00:36:04.168Z,10.18
2017-05-03T00:36:08.407Z,10.17
2017-05-03T00:36:12.606Z,10.2
2017-05-03T00:36:16.838Z,10.29
2017-05-03T00:36:21.262Z,10.25
2017-05-03T00:36:25.691Z,10.24
2017-05-03T00:36:30.121Z,10.29
2017-05-03T00:36:34.561Z,10.24
2017-05-03T00:36:38.988Z,10.2
2017-05-03T00:36:43.428Z,10.34
2017-05-03T00:36:47.740Z,10.29
2017-05-03T00:36:52.168Z,10.32
2017-05-03T00:36:56.589Z,10.24
2017-05-03T00:37:01.022Z,10.31
2017-05-03T00:37:05.437Z,10.17
2017-05-03T00:37:09.870Z,10.28
2017-05-03T00:37:14.188Z,10.32
2017-05-03T00:37:18.608Z,10.2
2017-05-03T00:37:22.925Z,10.25
2017-05-03T00:37:27.362Z,10.28
2017-05-03T00:37:31.792Z,10.29
2017-05-03T00:37:36.228Z,10.17
2017-05-03T00:37:40.665Z,10.28
2017-05-03T00:37:45.103Z,10.24
2017-05-03T00:37:49.536Z,10.29
2017-05-03T00:37:53.968Z,10.29
2017-05-03T00:37:58.282Z,10.26
2017-05-03T00:38:02.779Z,10.29
2017-05-03T00:38:07.092Z,10.25
2017-05-03T00:38:11.401Z,10.29
2017-05-03T00:38:15.831Z,10.31
2017-05-03T00:38:20.171Z,10.25
2017-05-03T00:38:24.607Z,10.25
2017-05-03T00:38:28.916Z,10.28
2017-05-03T00:38:33.346Z,10.31
2017-05-03T00:38:37.786Z,10.28
2017-05-03T00:38:42.218Z,10.28
2017-05-03T00:38:46.653Z,10.25
2017-05-03T00:38:50.977Z,10.29
2017-05-03T00:38:55.404Z,10.24
2017-05-03T00:38:59.727Z,10.31
2017-05-03T00:39:04.413Z,10.25
2017-05-03T00:39:08.727Z,10.29
2017-05-03T00:39:13.048Z,10.22
2017-05-03T00:39:17.375Z,10.24
2017-05-03T00:39:21.804Z,10.31
2017-05-03T00:39:26.245Z,10.28
2017-05-03T00:39:30.550Z,10.26
2017-05-03T00:39:34.863Z,10.28
2017-05-03T00:39:39.287Z,10.28
2017-05-03T00:39:43.602Z,10.25
2017-05-03T00:39:48.031Z,10.29
2017-05-03T00:39:52.337Z,10.25
2017-05-03T00:39:56.659Z,10.34
2017-05-03T00:40:00.976Z,10.31
2017-05-03T00:40:05.437Z,10.26
2017-05-03T00:40:09.627Z,10.29
2017-05-03T00:40:13.940Z,10.26
2017-05-03T00:40:18.371Z,10.29
2017-05-03T00:40:22.796Z,10.25
2017-05-03T00:40:27.221Z,10.26
2017-05-03T00:40:31.657Z,10.32
2017-05-03T00:40:36.086Z,10.28
2017-05-03T00:40:40.282Z,10.25
2017-05-03T00:40:44.715Z,10.29
2017-05-03T00:40:49.138Z,10.31
2017-05-03T00:40:53.460Z,10.32
2017-05-03T00:40:57.887Z,10.25
2017-05-03T00:41:02.076Z,10.34
2017-05-03T00:41:06.504Z,10.26
2017-05-03T00:41:10.929Z,10.31
2017-05-03T00:41:15.163Z,10.29
2017-05-03T00:41:19.586Z,10.31
2017-05-03T00:41:24.019Z,10.28
2017-05-03T00:41:28.452Z,10.29
2017-05-03T00:41:32.532Z,10.29
2017-05-03T00:41:36.958Z,10.28
2017-05-03T00:41:41.394Z,10.28
2017-05-03T00:41:45.818Z,10.31
2017-05-03T00:41:50.140Z,10.31
2017-05-03T00:41:54.564Z,10.29
2017-05-03T00:41:58.754Z,10.29
2017-05-03T00:42:03.180Z,10.32
2017-05-03T00:42:07.612Z,10.28
2017-05-03T00:42:12.077Z,10.28
2017-05-03T00:42:16.278Z,10.35
2017-05-03T00:42:20.701Z,10.29
2017-05-03T00:42:25.020Z,10.32
2017-05-03T00:42:29.443Z,10.32
2017-05-03T00:42:33.867Z,10.29
2017-05-03T00:42:38.178Z,10.28
2017-05-03T00:42:42.625Z,10.31
2017-05-03T00:42:47.082Z,10.34
2017-05-03T00:42:51.397Z,10.31
2017-05-03T00:42:55.844Z,10.31
2017-05-03T00:43:00.284Z,10.29
2017-05-03T00:43:04.594Z,10.36
2017-05-03T00:43:09.024Z,10.32
2017-05-03T00:43:13.224Z,10.34
2017-05-03T00:43:17.683Z,10.34
2017-05-03T00:43:21.881Z,10.31
2017-05-03T00:43:26.200Z,10.29
2017-05-03T00:43:30.631Z,10.28
2017-05-03T00:43:34.941Z,10.25
2017-05-03T00:43:39.373Z,10.31
2017-05-03T00:43:43.802Z,10.32
2017-05-03T00:43:48.270Z,10.35
2017-05-03T00:43:52.698Z,10.26
2017-05-03T00:43:57.002Z,10.35
2017-05-03T00:44:01.330Z,10.31
2017-05-03T00:44:05.649Z,10.28
2017-05-03T00:44:09.844Z,10.34
2017-05-03T00:44:14.158Z,10.31
2017-05-03T00:44:18.358Z,10.35
2017-05-03T00:44:22.672Z,10.32
2017-05-03T00:44:27.104Z,10.26
2017-05-03T00:44:31.416Z,10.25
2017-05-03T00:44:35.898Z,10.38
2017-05-03T00:44:40.334Z,10.28
2017-05-03T00:44:44.761Z,10.31
2017-05-03T00:44:49.198Z,10.22
2017-05-03T00:44:53.531Z,10.25
2017-05-03T00:44:57.966Z,10.35
2017-05-03T00:45:02.528Z,10.29
2017-05-03T00:45:06.836Z,10.34
2017-05-03T00:45:11.162Z,10.25
2017-05-03T00:45:15.114Z,10.29
2017-05-03T00:45:19.535Z,10.32
2017-05-03T00:45:23.981Z,10.29
2017-05-03T00:45:28.417Z,10.29
2017-05-03T00:45:32.738Z,10.24
2017-05-03T00:45:37.163Z,10.2
2017-05-03T00:45:41.625Z,10.29
2017-05-03T00:45:46.058Z,10.26
2017-05-03T00:45:50.490Z,10.28
2017-05-03T00:45:54.931Z,10.43
2017-05-03T00:45:59.236Z,10.39
2017-05-03T00:46:03.544Z,10.35
2017-05-03T00:46:07.619Z,10.32
2017-05-03T00:46:11.947Z,10.34
2017-05-03T00:46:16.145Z,10.31
2017-05-03T00:46:20.577Z,10.39
2017-05-03T00:46:25.001Z,10.31
2017-05-03T00:46:29.433Z,10.29
2017-05-03T00:46:33.858Z,10.34
2017-05-03T00:46:38.295Z,10.32
2017-05-03T00:46:42.747Z,10.36
2017-05-03T00:46:47.179Z,10.29
2017-05-03T00:46:51.499Z,10.31
2017-05-03T00:46:55.928Z,10.38
2017-05-03T00:47:00.360Z,10.36
2017-05-03T00:47:04.870Z,10.38
2017-05-03T00:47:09.303Z,10.36
2017-05-03T00:47:13.778Z,10.38
2017-05-03T00:47:17.851Z,10.36
2017-05-03T00:47:22.278Z,10.35
2017-05-03T00:47:26.597Z,10.34
2017-05-03T00:47:31.025Z,10.36
2017-05-03T00:47:35.452Z,10.32
2017-05-03T00:47:39.764Z,10.38
2017-05-03T00:47:44.076Z,10.32
2017-05-03T00:47:48.554Z,10.28
2017-05-03T00:47:52.750Z,10.31
2017-05-03T00:47:57.065Z,10.31
2017-05-03T00:48:01.498Z,10.28
2017-05-03T00:48:05.936Z,10.29
2017-05-03T00:48:10.131Z,10.46
2017-05-03T00:48:14.568Z,10.35
2017-05-03T00:48:19.004Z,10.39
2017-05-03T00:48:23.441Z,10.31
2017-05-03T00:48:27.884Z,10.39
2017-05-03T00:48:32.197Z,10.26
2017-05-03T00:48:36.626Z,10.35
2017-05-03T00:48:41.062Z,10.34
2017-05-03T00:48:45.261Z,10.32
2017-05-03T00:48:49.698Z,10.38
2017-05-03T00:48:54.129Z,10.34
2017-05-03T00:48:58.575Z,10.43
2017-05-03T00:49:03.196Z,10.36
2017-05-03T00:49:07.622Z,10.38
2017-05-03T00:49:11.935Z,10.42
2017-05-03T00:49:16.136Z,10.38
2017-05-03T00:49:20.563Z,10.42
2017-05-03T00:49:24.999Z,10.39
2017-05-03T00:49:29.315Z,10.35
2017-05-03T00:49:33.401Z,10.35
2017-05-03T00:49:37.595Z,10.43
2017-05-03T00:49:42.026Z,10.39
2017-05-03T00:49:46.456Z,10.35
2017-05-03T00:49:50.784Z,10.39
2017-05-03T00:49:55.243Z,10.43
2017-05-03T00:49:59.561Z,10.43
2017-05-03T00:50:03.758Z,10.42
2017-05-03T00:50:08.086Z,10.39
2017-05-03T00:50:12.272Z,10.35
2017-05-03T00:50:16.471Z,10.39
2017-05-03T00:50:20.894Z,10.46
2017-05-03T00:50:25.199Z,10.34
2017-05-03T00:50:29.510Z,10.44
2017-05-03T00:50:33.944Z,10.44
2017-05-03T00:50:38.248Z,10.35
2017-05-03T00:50:42.673Z,10.42
2017-05-03T00:50:47.098Z,10.47
2017-05-03T00:50:51.417Z,10.44
2017-05-03T00:50:55.844Z,10.36
2017-05-03T00:51:00.277Z,10.47
2017-05-03T00:51:04.974Z,10.43
2017-05-03T00:51:09.289Z,10.42
2017-05-03T00:51:13.605Z,10.46
2017-05-03T00:51:17.921Z,10.42
2017-05-03T00:51:22.355Z,10.44
2017-05-03T00:51:26.667Z,10.44
2017-05-03T00:51:30.976Z,10.43
2017-05-03T00:51:35.407Z,10.42
2017-05-03T00:51:39.760Z,10.47
2017-05-03T00:51:44.194Z,10.43
2017-05-03T00:51:48.510Z,10.51
2017-05-03T00:51:52.946Z,10.46
2017-05-03T00:51:57.406Z,10.43
2017-05-03T00:52:01.712Z,10.46
2017-05-03T00:52:05.939Z,10.46
2017-05-03T00:52:10.127Z,10.47
2017-05-03T00:52:14.361Z,10.52
2017-05-03T00:52:18.789Z,10.46
2017-05-03T00:52:23.212Z,10.49
2017-05-03T00:52:27.643Z,10.44
2017-05-03T00:52:32.081Z,10.43
2017-05-03T00:52:36.394Z,10.43
2017-05-03T00:52:40.827Z,10.43
2017-05-03T00:52:45.262Z,10.47
2017-05-03T00:52:49.579Z,10.47
2017-05-03T00:52:54.060Z,10.43
2017-05-03T00:52:58.503Z,10.39
2017-05-03T00:53:02.822Z,10.47
2017-05-03T00:53:07.027Z,10.43
2017-05-03T00:53:11.457Z,10.47
2017-05-03T00:53:15.653Z,10.46
2017-05-03T00:53:19.986Z,10.52
2017-05-03T00:53:24.423Z,10.44
2017-05-03T00:53:28.736Z,10.47
2017-05-03T00:53:33.170Z,10.43
2017-05-03T00:53:37.489Z,10.47
2017-05-03T00:53:41.921Z,10.42
2017-05-03T00:53:46.353Z,10.46
2017-05-03T00:53:50.679Z,10.43
2017-05-03T00:53:55.117Z,10.49
2017-05-03T00:53:59.434Z,10.49
2017-05-03T00:54:03.924Z,10.46
2017-05-03T00:54:08.356Z,10.44
2017-05-03T00:54:12.668Z,10.43
2017-05-03T00:54:16.994Z,10.43
2017-05-03T00:54:21.431Z,10.44
2017-05-03T00:54:25.866Z,10.54
2017-05-03T00:54:30.181Z,10.47
2017-05-03T00:54:34.497Z,10.49
2017-05-03T00:54:38.932Z,10.44
2017-05-03T00:54:43.360Z,10.44
2017-05-03T00:54:47.667Z,10.44
2017-05-03T00:54:52.111Z,10.43
2017-05-03T00:54:56.458Z,10.51
2017-05-03T00:55:00.782Z,10.44
2017-05-03T00:55:05.417Z,10.46
2017-05-03T00:55:09.842Z,10.46
2017-05-03T00:55:14.150Z,10.47
2017-05-03T00:55:18.586Z,10.44
2017-05-03T00:55:23.012Z,10.44
2017-05-03T00:55:27.436Z,10.46
2017-05-03T00:55:31.740Z,10.44
2017-05-03T00:55:36.172Z,10.43
2017-05-03T00:55:40.598Z,10.49
2017-05-03T00:55:45.025Z,10.51
2017-05-03T00:55:49.341Z,10.47
2017-05-03T00:55:53.774Z,10.46
2017-05-03T00:55:58.083Z,10.49
2017-05-03T00:56:02.514Z,10.49
2017-05-03T00:56:06.949Z,10.44
2017-05-03T00:56:11.268Z,10.46
2017-05-03T00:56:15.471Z,10.47
2017-05-03T00:56:19.941Z,10.52
2017-05-03T00:56:24.379Z,10.39